Terminal Aerodrome Forecast
Issued by NWS

Home | Current Version | Previous Version | Text Only | Print | Product List | Glossary On
Versions: 1 2 3 4 5 6 7 8 9 10 11 12 13 14 15
408
FTPA31 PHFO 221738
TAFHOG
TAF
PHOG 221738Z 2218/2318 06020G32KT P6SM VCSH SCT025 BKN045
     FM230500 06015G24KT P6SM VCSH FEW025 BKN050
     FM231500 08010KT P6SM FEW025 SCT045
      AMD LTD TO VIS AND WIND 2309/2316=

USA.gov is the U.S. government's official web portal to all federal, state and local government web resources and services.